createdAt,value
2023-02-22T00:01:28.695Z,68.16
2023-02-22T00:03:00.726Z,67.72
2023-02-22T00:04:35.852Z,67.49
2023-02-22T00:06:08.168Z,67.23
2023-02-22T00:07:40.154Z,67.28
2023-02-22T00:09:12.229Z,67.46
2023-02-22T00:10:44.943Z,67.11
2023-02-22T00:12:16.920Z,66.94
2023-02-22T00:13:50.836Z,67.11
2023-02-22T00:15:27.595Z,67.16
2023-02-22T00:17:00.105Z,67.44
2023-02-22T00:18:32.223Z,67.58
2023-02-22T00:20:07.032Z,67.96
2023-02-22T00:21:38.960Z,68.37
2023-02-22T00:23:16.903Z,68.37
2023-02-22T00:24:49.030Z,68.17
2023-02-22T00:26:23.764Z,68.17
2023-02-22T00:27:56.557Z,67.71
2023-02-22T00:29:28.971Z,67.61
2023-02-22T00:31:00.980Z,67.29
2023-02-22T00:32:33.350Z,67.38
2023-02-22T00:34:05.484Z,67.30
2023-02-22T00:35:37.426Z,67.41
2023-02-22T00:37:11.391Z,67.40
2023-02-22T00:38:43.453Z,67.16
2023-02-22T00:40:19.507Z,66.67
2023-02-22T00:41:51.546Z,66.69
2023-02-22T00:43:26.735Z,66.34
2023-02-22T00:44:58.737Z,66.36
2023-02-22T00:46:30.759Z,66.73
2023-02-22T00:48:06.623Z,67.09
2023-02-22T00:49:39.348Z,67.27
2023-02-22T00:51:11.426Z,67.72
2023-02-22T00:52:43.409Z,67.62
2023-02-22T00:54:17.459Z,67.98
2023-02-22T00:55:49.726Z,67.61
2023-02-22T00:57:22.523Z,67.53
2023-02-22T00:58:54.552Z,67.34
2023-02-22T01:00:28.324Z,67.06
2023-02-22T01:02:00.380Z,66.82
2023-02-22T01:03:32.559Z,66.56
2023-02-22T01:05:05.907Z,66.65
2023-02-22T01:06:38.042Z,67.36
2023-02-22T01:08:11.493Z,67.94
2023-02-22T01:09:44.628Z,67.87
2023-02-22T01:11:18.141Z,68.16
2023-02-22T01:12:53.126Z,68.36
2023-02-22T01:14:27.077Z,68.44
2023-02-22T01:16:01.014Z,68.17
2023-02-22T01:17:33.163Z,68.17
2023-02-22T01:19:06.585Z,68.05
2023-02-22T01:20:38.475Z,67.59
2023-02-22T01:22:11.439Z,67.32
2023-02-22T01:23:45.882Z,67.36
2023-02-22T01:25:21.218Z,67.66
2023-02-22T01:26:53.546Z,67.79
2023-02-22T01:28:25.602Z,68.35
2023-02-22T01:29:57.582Z,68.53
2023-02-22T01:31:29.652Z,68.88
2023-02-22T01:33:03.133Z,68.83
2023-02-22T01:34:35.126Z,68.98
2023-02-22T01:36:11.701Z,68.91
2023-02-22T01:37:43.678Z,69.13
2023-02-22T01:39:18.208Z,68.92
2023-02-22T01:40:51.639Z,68.68
2023-02-22T01:42:24.433Z,68.57
2023-02-22T01:43:56.366Z,69.12
2023-02-22T01:45:31.064Z,69.16
2023-02-22T01:47:05.335Z,69.67
2023-02-22T01:49:06.844Z,69.64
2023-02-22T01:50:49.537Z,69.51
2023-02-22T01:52:21.871Z,69.20
2023-02-22T01:53:57.793Z,69.13
2023-02-22T01:55:29.891Z,68.98
2023-02-22T01:57:06.661Z,68.67
2023-02-22T01:58:41.673Z,68.44
2023-02-22T02:00:17.580Z,68.63
2023-02-22T02:01:49.720Z,68.75
2023-02-22T02:03:27.752Z,68.60
2023-02-22T02:05:00.465Z,68.65
2023-02-22T02:06:34.121Z,68.81
2023-02-22T02:08:36.540Z,69.02
2023-02-22T02:10:14.714Z,69.05
2023-02-22T02:11:47.116Z,69.19
2023-02-22T02:13:19.098Z,69.42
2023-02-22T02:14:51.187Z,69.38
2023-02-22T02:16:25.269Z,69.63
2023-02-22T02:18:01.091Z,69.77
2023-02-22T02:19:57.440Z,69.78
2023-02-22T02:21:50.148Z,69.94
2023-02-22T02:23:59.005Z,69.88
2023-02-22T02:25:49.590Z,70.21
2023-02-22T02:27:29.455Z,70.25
2023-02-22T02:29:22.453Z,70.12
2023-02-22T02:31:25.027Z,69.99
2023-02-22T02:33:02.116Z,70.31
2023-02-22T02:35:00.297Z,70.43
2023-02-22T02:36:39.167Z,70.76
2023-02-22T02:38:17.748Z,70.87
2023-02-22T02:39:56.126Z,71.00
2023-02-22T02:41:35.434Z,71.13
2023-02-22T02:43:27.671Z,70.96
2023-02-22T02:45:10.343Z,70.97
2023-02-22T02:47:35.029Z,71.13
2023-02-22T02:49:11.154Z,71.21
2023-02-22T02:50:48.406Z,71.53
2023-02-22T02:52:21.592Z,71.57
2023-02-22T02:53:54.353Z,71.85
2023-02-22T02:55:26.586Z,71.92
2023-02-22T02:56:58.927Z,72.43
2023-02-22T02:58:31.061Z,72.26
2023-02-22T03:00:03.702Z,72.63
2023-02-22T03:02:04.763Z,72.70
2023-02-22T03:04:10.510Z,72.71
2023-02-22T03:06:20.273Z,73.32
2023-02-22T03:08:21.545Z,73.67
2023-02-22T03:10:13.503Z,73.69
2023-02-22T03:12:02.501Z,73.69
2023-02-22T03:13:59.046Z,73.24
2023-02-22T03:15:57.412Z,73.01
2023-02-22T03:17:54.763Z,73.03
2023-02-22T03:19:44.729Z,72.96
2023-02-22T03:21:33.846Z,73.29
2023-02-22T03:23:12.560Z,73.62
2023-02-22T03:24:53.370Z,73.81
2023-02-22T03:26:36.189Z,73.90
2023-02-22T03:28:12.088Z,74.33
2023-02-22T03:29:46.047Z,74.16
2023-02-22T03:31:24.179Z,74.01
2023-02-22T03:33:09.331Z,73.63
2023-02-22T03:34:44.498Z,73.92
2023-02-22T03:36:25.210Z,73.53
2023-02-22T03:37:58.891Z,73.65
2023-02-22T03:39:31.692Z,73.74
2023-02-22T03:41:05.287Z,74.07
2023-02-22T03:42:37.977Z,74.07
2023-02-22T03:44:12.862Z,74.35
2023-02-22T03:45:46.231Z,74.07
2023-02-22T03:47:32.357Z,73.71
2023-02-22T03:49:10.774Z,73.56
2023-02-22T03:50:43.135Z,73.39
2023-02-22T03:52:15.169Z,73.43
2023-02-22T03:53:50.069Z,73.42
2023-02-22T03:55:24.094Z,73.11
2023-02-22T03:56:58.787Z,73.01
2023-02-22T03:58:32.048Z,73.14
2023-02-22T04:00:08.468Z,73.38
2023-02-22T04:01:40.498Z,73.50
2023-02-22T04:03:12.797Z,73.68
2023-02-22T04:04:46.179Z,73.64
2023-02-22T04:06:18.242Z,74.28
2023-02-22T04:07:50.270Z,74.50
2023-02-22T04:09:22.330Z,74.52
2023-02-22T04:10:54.296Z,74.97
2023-02-22T04:12:26.312Z,74.88
2023-02-22T04:13:58.727Z,74.94
2023-02-22T04:15:30.776Z,74.88
2023-02-22T04:17:02.810Z,74.44
2023-02-22T04:18:34.841Z,74.55
2023-02-22T04:20:07.580Z,74.29
2023-02-22T04:21:39.596Z,74.25
2023-02-22T04:23:11.693Z,74.77
2023-02-22T04:24:43.678Z,74.64
2023-02-22T04:26:15.806Z,74.47
2023-02-22T04:27:48.018Z,74.73
2023-02-22T04:29:22.884Z,74.64
2023-02-22T04:30:54.976Z,74.43
2023-02-22T04:32:27.909Z,74.84
2023-02-22T04:34:01.059Z,74.73
2023-02-22T04:35:35.386Z,74.83
2023-02-22T04:37:08.105Z,75.18
2023-02-22T04:38:40.363Z,75.66
2023-02-22T04:40:12.536Z,75.43
2023-02-22T04:41:44.517Z,75.03
2023-02-22T04:43:16.702Z,74.81
2023-02-22T04:44:48.651Z,74.78
2023-02-22T04:46:20.824Z,74.77
2023-02-22T04:47:52.897Z,74.66
2023-02-22T04:49:24.949Z,74.44
2023-02-22T04:50:56.980Z,74.31
2023-02-22T04:52:29.170Z,74.08
2023-02-22T04:54:01.262Z,74.11
2023-02-22T04:55:34.421Z,74.08
2023-02-22T04:57:06.374Z,74.55
2023-02-22T04:58:38.432Z,74.76
2023-02-22T05:00:11.063Z,75.11
2023-02-22T05:01:43.100Z,75.31
2023-02-22T05:03:15.118Z,75.51
2023-02-22T05:04:47.368Z,75.49
2023-02-22T05:06:19.601Z,75.43
2023-02-22T05:07:51.697Z,75.48
2023-02-22T05:09:23.960Z,75.39
2023-02-22T05:10:56.328Z,75.08
2023-02-22T05:12:28.475Z,74.95
2023-02-22T05:14:00.672Z,74.92
2023-02-22T05:15:33.033Z,74.75
2023-02-22T05:17:05.336Z,74.73
2023-02-22T05:18:37.418Z,74.58
2023-02-22T05:20:28.234Z,74.93
2023-02-22T05:22:00.568Z,74.85
2023-02-22T05:23:33.257Z,75.13
2023-02-22T05:25:05.620Z,75.46
2023-02-22T05:26:37.712Z,75.54
2023-02-22T05:28:13.545Z,75.68
2023-02-22T05:29:45.642Z,75.39
2023-02-22T05:31:17.949Z,75.77
2023-02-22T05:32:51.505Z,75.75
2023-02-22T05:34:24.305Z,76.25
2023-02-22T05:35:56.552Z,76.35
2023-02-22T05:37:28.624Z,76.39
2023-02-22T05:39:00.649Z,76.43
2023-02-22T05:40:33.242Z,76.48
2023-02-22T05:42:05.380Z,75.88
2023-02-22T05:43:38.285Z,75.98
2023-02-22T05:45:16.343Z,75.65
2023-02-22T05:46:48.479Z,75.26
2023-02-22T05:48:22.640Z,75.50
2023-02-22T05:49:54.809Z,75.71
2023-02-22T05:51:26.886Z,75.94
2023-02-22T05:52:59.196Z,76.08
2023-02-22T05:54:31.216Z,76.17
2023-02-22T05:56:03.309Z,76.09
2023-02-22T05:57:35.525Z,75.81
2023-02-22T05:59:07.588Z,75.70
2023-02-22T06:00:39.661Z,75.72
2023-02-22T06:02:11.683Z,75.55
2023-02-22T06:03:46.503Z,75.36
2023-02-22T06:05:18.746Z,75.24
2023-02-22T06:06:50.954Z,75.10
2023-02-22T06:08:23.005Z,74.88
2023-02-22T06:09:55.038Z,74.88
2023-02-22T06:11:27.115Z,74.91
2023-02-22T06:13:00.518Z,74.83
2023-02-22T06:14:32.565Z,74.69
2023-02-22T06:16:04.907Z,74.60
2023-02-22T06:17:37.141Z,74.75
2023-02-22T06:19:09.328Z,74.71
2023-02-22T06:20:41.735Z,74.36
2023-02-22T06:22:19.121Z,74.14
2023-02-22T06:23:51.111Z,73.80
2023-02-22T06:25:25.960Z,73.77
2023-02-22T06:27:00.989Z,73.44
2023-02-22T06:28:32.943Z,72.97
2023-02-22T06:30:05.739Z,72.38
2023-02-22T06:31:37.888Z,72.52
2023-02-22T06:33:11.094Z,72.18
2023-02-22T06:34:43.107Z,71.56
2023-02-22T06:36:15.100Z,71.42
2023-02-22T06:37:47.223Z,71.29
2023-02-22T06:39:19.480Z,71.00
2023-02-22T06:40:52.115Z,70.86
2023-02-22T06:42:24.833Z,70.75
2023-02-22T06:43:56.953Z,70.48
2023-02-22T06:45:29.031Z,70.21
2023-02-22T06:47:01.209Z,69.94
2023-02-22T06:48:33.340Z,70.16
2023-02-22T06:50:05.706Z,69.78
2023-02-22T06:51:38.907Z,69.25
2023-02-22T06:53:11.010Z,68.92
2023-02-22T06:54:43.878Z,68.71
2023-02-22T06:56:16.016Z,68.12
2023-02-22T06:57:48.273Z,68.05
2023-02-22T06:59:20.339Z,67.75
2023-02-22T07:00:52.419Z,67.08
2023-02-22T07:02:24.889Z,66.25
2023-02-22T07:03:57.327Z,65.94
2023-02-22T07:05:29.534Z,65.51
2023-02-22T07:07:01.628Z,64.81
2023-02-22T07:08:33.868Z,64.70
2023-02-22T07:10:08.538Z,64.33
2023-02-22T07:11:40.805Z,64.39
2023-02-22T07:13:12.952Z,63.76
2023-02-22T07:14:45.003Z,63.94
2023-02-22T07:16:17.210Z,62.18
2023-02-22T07:17:49.515Z,62.09
2023-02-22T07:19:21.591Z,61.62
2023-02-22T07:20:54.766Z,61.10
2023-02-22T07:22:27.038Z,60.92
2023-02-22T07:24:02.228Z,60.63
2023-02-22T07:25:35.928Z,59.96
2023-02-22T07:27:07.939Z,59.77
2023-02-22T07:28:39.893Z,59.18
2023-02-22T07:30:31.532Z,57.95
2023-02-22T07:32:03.771Z,57.12
2023-02-22T07:33:35.958Z,53.96
2023-02-22T07:35:25.250Z,53.46
2023-02-22T07:36:57.220Z,51.94
2023-02-22T07:38:29.288Z,49.92
2023-02-22T07:40:01.349Z,49.94
2023-02-22T07:41:33.322Z,49.92
2023-02-22T07:43:07.194Z,48.95
2023-02-22T07:44:39.399Z,48.47
2023-02-22T07:46:11.512Z,48.63
2023-02-22T07:47:43.531Z,48.62
2023-02-22T07:49:15.756Z,48.38
2023-02-22T07:50:48.065Z,48.35
2023-02-22T07:52:20.235Z,48.18
2023-02-22T07:53:52.493Z,48.71
2023-02-22T07:55:26.779Z,48.12
2023-02-22T07:56:58.847Z,46.29
2023-02-22T07:58:31.996Z,45.76
2023-02-22T08:00:04.670Z,45.42
2023-02-22T08:01:37.535Z,45.60
2023-02-22T08:03:13.438Z,45.97
2023-02-22T08:04:45.497Z,44.93
2023-02-22T08:06:18.183Z,45.34
2023-02-22T08:07:50.432Z,44.76
2023-02-22T08:09:23.978Z,44.50
2023-02-22T08:10:56.401Z,44.67
2023-02-22T08:12:28.503Z,44.07
2023-02-22T08:14:00.708Z,44.19
2023-02-22T08:15:35.445Z,43.17
2023-02-22T08:17:08.837Z,43.01
2023-02-22T08:18:41.408Z,43.09
2023-02-22T08:20:13.992Z,43.16
2023-02-22T08:21:45.974Z,43.31
2023-02-22T08:23:19.541Z,43.79
2023-02-22T08:24:54.598Z,43.67
2023-02-22T08:26:26.799Z,42.91
2023-02-22T08:28:09.170Z,42.57
2023-02-22T08:29:41.305Z,42.55
2023-02-22T08:31:13.440Z,42.77
2023-02-22T08:32:47.222Z,42.34
2023-02-22T08:34:19.334Z,42.11
2023-02-22T08:35:52.131Z,41.89
2023-02-22T08:37:24.267Z,42.14
2023-02-22T08:38:56.306Z,41.87
2023-02-22T08:40:34.222Z,41.89
2023-02-22T08:42:06.717Z,42.15
2023-02-22T08:43:38.780Z,41.77
2023-02-22T08:45:11.877Z,41.74
2023-02-22T08:46:44.060Z,41.46
2023-02-22T08:48:17.365Z,41.47
2023-02-22T08:49:49.444Z,41.21
2023-02-22T08:51:21.768Z,41.42
2023-02-22T08:52:55.453Z,41.13
2023-02-22T08:54:27.511Z,41.14
2023-02-22T08:55:59.578Z,40.94
2023-02-22T08:57:32.216Z,40.94
2023-02-22T08:59:04.318Z,41.09
2023-02-22T09:00:39.162Z,40.87
2023-02-22T09:02:18.170Z,40.20
2023-02-22T09:03:50.833Z,40.19
2023-02-22T09:05:23.042Z,40.41
2023-02-22T09:06:55.205Z,40.36
2023-02-22T09:08:27.330Z,40.21
2023-02-22T09:09:59.558Z,40.10
2023-02-22T09:11:34.724Z,40.11
2023-02-22T09:13:06.904Z,40.01
2023-02-22T09:14:38.941Z,40.17
2023-02-22T09:16:11.061Z,40.28
2023-02-22T09:17:43.078Z,40.17
2023-02-22T09:19:15.053Z,39.51
2023-02-22T09:20:47.045Z,39.86
2023-02-22T09:22:19.115Z,39.87
2023-02-22T09:23:51.148Z,39.57
2023-02-22T09:25:24.213Z,39.80
2023-02-22T09:26:56.712Z,39.50
2023-02-22T09:28:29.291Z,39.38
2023-02-22T09:30:01.379Z,39.35
2023-02-22T09:31:39.242Z,39.42
2023-02-22T09:33:14.052Z,38.71
2023-02-22T09:34:47.407Z,39.19
2023-02-22T09:36:22.191Z,38.83
2023-02-22T09:37:56.164Z,39.01
2023-02-22T09:39:28.280Z,39.11
2023-02-22T09:41:14.411Z,38.96
2023-02-22T09:42:57.546Z,38.93
2023-02-22T09:44:38.481Z,39.28
2023-02-22T09:46:19.895Z,39.32
2023-02-22T09:48:08.040Z,38.98
2023-02-22T09:50:16.092Z,39.18
2023-02-22T09:52:05.344Z,38.54
2023-02-22T09:53:42.136Z,39.71
2023-02-22T09:55:41.533Z,38.99
2023-02-22T09:57:22.244Z,38.10
2023-02-22T09:59:04.007Z,38.00
2023-02-22T10:00:38.352Z,37.92
2023-02-22T10:02:32.482Z,38.13
2023-02-22T10:04:20.778Z,37.91
2023-02-22T10:06:05.656Z,38.03
2023-02-22T10:07:55.763Z,38.49
2023-02-22T10:09:30.721Z,38.42
2023-02-22T10:11:17.754Z,38.03
2023-02-22T10:13:29.342Z,37.82
2023-02-22T10:15:30.561Z,37.71
2023-02-22T10:17:14.917Z,37.62
2023-02-22T10:19:08.771Z,37.35
2023-02-22T10:20:57.750Z,37.42
2023-02-22T10:22:38.648Z,37.62
2023-02-22T10:24:40.358Z,37.62
2023-02-22T10:26:12.739Z,37.45
2023-02-22T10:27:57.627Z,36.99
2023-02-22T10:29:40.297Z,37.64
2023-02-22T10:31:21.265Z,36.51
2023-02-22T10:33:05.736Z,36.78
2023-02-22T10:34:41.898Z,36.68
2023-02-22T10:36:20.397Z,37.17
2023-02-22T10:37:56.831Z,36.75
2023-02-22T10:39:33.547Z,37.01
2023-02-22T10:41:31.279Z,36.74
2023-02-22T10:43:05.112Z,37.54
2023-02-22T10:44:38.766Z,37.43
2023-02-22T10:46:21.609Z,37.27
2023-02-22T10:47:59.274Z,37.25
2023-02-22T10:49:36.626Z,36.67
2023-02-22T10:51:09.980Z,36.77
2023-02-22T10:52:41.894Z,36.91
2023-02-22T10:54:13.942Z,36.82
2023-02-22T10:56:22.233Z,36.93
2023-02-22T10:58:04.972Z,36.57
2023-02-22T10:59:39.581Z,36.95
2023-02-22T11:01:37.435Z,36.82
2023-02-22T11:03:21.244Z,36.72
2023-02-22T11:04:53.946Z,36.83
2023-02-22T11:06:26.221Z,37.13
2023-02-22T11:08:22.893Z,37.59
2023-02-22T11:10:00.261Z,37.37
2023-02-22T11:11:32.695Z,38.55
2023-02-22T11:13:18.811Z,37.61
2023-02-22T11:14:50.919Z,37.82
2023-02-22T11:16:41.358Z,37.66
2023-02-22T11:18:26.316Z,37.22
2023-02-22T11:19:59.518Z,37.35
2023-02-22T11:21:32.960Z,37.52
2023-02-22T11:23:06.028Z,37.75
2023-02-22T11:24:58.528Z,37.99
2023-02-22T11:26:38.902Z,37.46
2023-02-22T11:28:15.351Z,37.84
2023-02-22T11:29:51.170Z,37.05
2023-02-22T11:31:28.835Z,36.88
2023-02-22T11:33:17.749Z,37.58
2023-02-22T11:35:03.525Z,37.76
2023-02-22T11:36:42.913Z,37.02
2023-02-22T11:38:21.418Z,37.59
2023-02-22T11:40:07.380Z,36.93
2023-02-22T11:41:39.420Z,37.38
2023-02-22T11:43:19.351Z,36.95
2023-02-22T11:45:23.951Z,37.25
2023-02-22T11:46:57.636Z,37.02
2023-02-22T11:48:39.436Z,37.75
2023-02-22T11:50:30.724Z,37.31
2023-02-22T11:52:17.761Z,37.44
2023-02-22T11:53:59.808Z,37.07
2023-02-22T11:55:42.693Z,37.39
2023-02-22T11:57:24.755Z,37.19
2023-02-22T11:59:08.576Z,36.91
2023-02-22T12:00:54.276Z,37.17
2023-02-22T12:02:29.172Z,37.54
2023-02-22T12:04:22.769Z,36.76
2023-02-22T12:06:19.813Z,37.43
2023-02-22T12:08:13.873Z,37.42
2023-02-22T12:09:58.246Z,37.99
2023-02-22T12:11:45.458Z,36.17
2023-02-22T12:13:18.205Z,36.18
2023-02-22T12:14:58.850Z,36.27
2023-02-22T12:17:08.156Z,37.17
2023-02-22T12:19:07.682Z,36.80
2023-02-22T12:20:48.049Z,36.24
2023-02-22T12:22:26.476Z,35.84
2023-02-22T12:24:20.446Z,36.45
2023-02-22T12:26:11.844Z,36.29
2023-02-22T12:27:49.616Z,36.92
2023-02-22T12:29:42.136Z,36.90
2023-02-22T12:31:21.343Z,36.60
2023-02-22T12:32:54.486Z,36.77
2023-02-22T12:34:49.184Z,36.36
2023-02-22T12:36:26.153Z,36.20
2023-02-22T12:38:07.236Z,35.86
2023-02-22T12:40:01.199Z,36.38
2023-02-22T12:41:59.444Z,36.20
2023-02-22T12:43:41.593Z,36.65
2023-02-22T12:45:21.743Z,36.21
2023-02-22T12:46:57.009Z,35.79
2023-02-22T12:48:40.916Z,35.48
2023-02-22T12:50:24.205Z,35.37
2023-02-22T12:52:20.838Z,35.27
2023-02-22T12:54:05.799Z,35.58
2023-02-22T12:55:45.996Z,35.22
2023-02-22T12:57:24.141Z,35.49
2023-02-22T12:59:03.234Z,35.80
2023-02-22T13:00:40.848Z,35.44
2023-02-22T13:02:27.830Z,35.88
2023-02-22T13:04:05.849Z,36.40
2023-02-22T13:05:45.511Z,36.43
2023-02-22T13:07:36.368Z,36.38
2023-02-22T13:09:24.868Z,36.88
2023-02-22T13:11:20.768Z,36.84
2023-02-22T13:13:11.385Z,35.85
2023-02-22T13:14:55.370Z,35.75
2023-02-22T13:16:37.708Z,35.92
2023-02-22T13:18:32.819Z,35.86
2023-02-22T13:20:30.021Z,35.90
2023-02-22T13:22:30.239Z,36.05
2023-02-22T13:24:16.080Z,36.23
2023-02-22T13:25:58.423Z,36.26
2023-02-22T13:27:54.828Z,36.19
2023-02-22T13:29:39.548Z,36.63
2023-02-22T13:31:23.673Z,37.06
2023-02-22T13:33:21.147Z,37.14
2023-02-22T13:35:07.953Z,36.91
2023-02-22T13:37:02.036Z,36.58
2023-02-22T13:38:55.782Z,36.41
2023-02-22T13:40:42.917Z,36.39
2023-02-22T13:42:18.035Z,36.71
2023-02-22T13:44:03.625Z,36.43
2023-02-22T13:45:44.705Z,35.88
2023-02-22T13:47:29.040Z,36.77
2023-02-22T13:49:19.473Z,37.06
2023-02-22T13:51:42.296Z,38.14
2023-02-22T13:53:30.125Z,37.14
2023-02-22T13:55:11.411Z,37.07
2023-02-22T13:56:44.858Z,36.33
2023-02-22T13:58:17.111Z,36.62
2023-02-22T13:59:49.425Z,37.36
2023-02-22T14:01:41.461Z,37.22
2023-02-22T14:03:13.534Z,36.93
2023-02-22T14:04:45.643Z,36.86
2023-02-22T14:06:36.943Z,37.11
2023-02-22T14:08:19.170Z,36.93
2023-02-22T14:09:59.518Z,37.08
2023-02-22T14:11:31.543Z,37.20
2023-02-22T14:13:10.047Z,37.00
2023-02-22T14:15:27.740Z,36.88
2023-02-22T14:17:26.651Z,37.03
2023-02-22T14:19:25.457Z,37.22
2023-02-22T14:21:16.521Z,36.65
2023-02-22T14:22:53.299Z,36.78
2023-02-22T14:24:25.739Z,36.95
2023-02-22T14:26:12.115Z,37.75
2023-02-22T14:27:44.332Z,37.52
2023-02-22T14:29:18.614Z,37.69
2023-02-22T14:30:50.726Z,37.56
